首页
METAR-TAF:

METAR-TAF

机场 :

拉巴特-塞拉国际机场

拉巴特, 摩洛哥

纬度: 34-03N, 经度: 006-46W, 海拔: 84米

当前天气观测

该预报发布于17分钟前的20:00 UTC
风速2节,风向南转南东
温度 14°C
湿度 88%
气压 1013 hPa
能見度: 3300
少量云层高于1100英尺
散云层高于2600英尺
轻雾

METAR: GMME 142000Z 15002KT 3300 BR FEW011 SCT026 14/12 Q1013 TEMPO 5000

时间: 20:17 (20:17 UTC)

预报

该预报发布于3小时和17分钟前的17:00 UTC
预报有效从14日的 18点(UTC)到 15日的 24点(UTC)
风速11节,风向北转西北
能見度: 8000
散云层高于1600英尺
散云层高于20000英尺
短暂存在
从 14日的 20点(UTC)到 15日的 08点(UTC)
风速2节,风向多变
能見度: 2000
多云层高于800英尺
轻雾
几率 40% :
短暂存在
从 15日的 02点(UTC)到 15日的 07点(UTC)
能見度: 0600
成为
从 15日的 19点(UTC)到 15日的 23点(UTC)
风速4节,风向东南
能見度: 4000
多云层高于1000英尺
轻雾

TAF: GMME 141700Z 1418/1524 34011KT 8000 SCT016 SCT200 TEMPO 1420/1508 VRB02KT 2000 BR BKN008 PROB40 TEMPO 1502/1507 0600 FG BECMG 1519/1523 14004KT 4000 BR BKN010

超过4000个机场的气象观测和天气预报(METAR&TAF报告)。

可查询的气象台以黄色和红色小点在地图上表示。

将鼠标移到小点上方,可查看气象台名称。

然后点击查看天气观测和预报。

如需切换地图:点击带黑十字的绿色按钮放大地图;点击带横线的绿色按钮缩小地图;或者点击绿色箭头查看邻近地区的地图。


METAR-TAF: